Time;durP1;ratioP1;P1;durP2;ratioP2;P2;SDS_P1;SDS_P2;PMS_P1;PMS_P2;Temp;Humidity;BMP_temperature;BMP_pressure;BME280_temperature;BME280_humidity;BME280_pressure;Samples;Min_cycle;Max_cycle;Signal;HPM_P1;HPM_P2
2022/09/02 00:00:59;;;;;;;2.30;1.52;;;17.40;92.40;;;;;;5055018;28;20509;-75
2022/09/02 00:03:30;;;;;;;2.55;0.98;;;17.30;92.40;;;;;;5056380;28;20021;-74
2022/09/02 00:05:56;;;;;;;0.80;0.75;;;17.20;92.50;;;;;;5054381;28;20025;-75
2022/09/02 00:08:22;;;;;;;1.52;1.30;;;17.20;92.50;;;;;;5056727;28;20155;-77
2022/09/02 00:10:48;;;;;;;4.85;1.13;;;17.20;92.50;;;;;;5055583;28;20120;-75
2022/09/02 00:13:17;;;;;;;1.83;1.00;;;17.20;92.80;;;;;;5056011;28;20029;-74
2022/09/02 00:15:44;;;;;;;0.98;0.82;;;17.10;92.70;;;;;;5055983;28;20033;-76
2022/09/02 00:18:12;;;;;;;1.20;1.10;;;17.10;92.70;;;;;;5055542;28;20112;-76
2022/09/02 00:20:40;;;;;;;1.65;0.80;;;17.10;92.90;;;;;;5055670;28;20072;-76
2022/09/02 00:23:07;;;;;;;2.17;1.30;;;17.00;92.90;;;;;;5056034;28;20021;-76
2022/09/02 00:25:34;;;;;;;1.20;1.10;;;17.00;93.00;;;;;;5055196;28;20032;-73
2022/09/02 00:28:00;;;;;;;1.60;1.10;;;16.90;93.10;;;;;;5056053;28;20411;-74
2022/09/02 00:30:26;;;;;;;3.47;1.17;;;17.00;93.30;;;;;;5055554;28;20060;-74
2022/09/02 00:32:53;;;;;;;0.82;0.82;;;17.00;92.90;;;;;;5055302;28;20028;-75
2022/09/02 00:35:18;;;;;;;1.45;0.98;;;16.90;93.20;;;;;;5055823;28;20025;-76
2022/09/02 00:37:44;;;;;;;1.30;1.00;;;17.00;93.10;;;;;;5054454;28;20040;-76
2022/09/02 00:40:11;;;;;;;1.20;0.80;;;16.90;93.10;;;;;;5054953;28;20017;-76
2022/09/02 00:42:37;;;;;;;5.93;0.80;;;16.90;93.10;;;;;;5055477;28;20028;-74
2022/09/02 00:45:05;;;;;;;1.65;0.82;;;16.90;93.20;;;;;;5055502;28;20029;-75
2022/09/02 00:47:32;;;;;;;3.65;1.10;;;16.90;93.30;;;;;;5054718;28;20025;-75
2022/09/02 00:49:58;;;;;;;1.02;0.70;;;16.90;93.40;;;;;;5054359;28;20075;-75
2022/09/02 00:52:31;;;;;;;1.52;1.00;;;16.90;93.20;;;;;;5055581;28;20049;-75
2022/09/02 00:55:01;;;;;;;0.80;0.77;;;17.00;93.20;;;;;;5054716;28;20025;-75
2022/09/02 00:57:32;;;;;;;2.15;0.80;;;16.90;93.20;;;;;;5055251;28;20416;-76
2022/09/02 01:00:11;;;;;;;1.38;0.90;;;16.90;93.30;;;;;;5054767;28;20040;-75
2022/09/02 01:02:40;;;;;;;1.27;0.90;;;16.80;93.40;;;;;;5054819;28;20036;-76
2022/09/02 01:05:10;;;;;;;6.10;1.10;;;16.80;93.40;;;;;;5055136;28;20028;-76
2022/09/02 01:07:39;;;;;;;2.10;0.98;;;16.80;93.50;;;;;;5054344;28;20025;-76
2022/09/02 01:10:10;;;;;;;1.60;0.93;;;16.80;93.50;;;;;;5055060;28;20047;-75
2022/09/02 01:12:37;;;;;;;1.65;0.80;;;16.80;93.40;;;;;;5054842;28;20126;-76
2022/09/02 01:15:06;;;;;;;1.45;0.80;;;16.80;93.60;;;;;;5054179;28;20025;-76
2022/09/02 01:17:33;;;;;;;4.38;1.40;;;16.80;93.50;;;;;;5054879;28;20020;-75
2022/09/02 01:20:06;;;;;;;1.88;0.90;;;16.80;93.60;;;;;;5054977;28;20053;-77
2022/09/02 01:22:33;;;;;;;0.93;0.93;;;16.80;93.60;;;;;;5054762;28;20025;-74
2022/09/02 01:25:09;;;;;;;2.40;0.80;;;16.80;93.80;;;;;;5054914;28;20028;-78
2022/09/02 01:27:37;;;;;;;1.30;1.08;;;16.80;93.60;;;;;;5054622;28;20025;-75
2022/09/02 01:30:07;;;;;;;3.85;1.88;;;16.80;93.70;;;;;;5054273;28;20028;-76
2022/09/02 01:32:32;;;;;;;0.65;0.60;;;16.80;93.70;;;;;;5054483;28;20040;-76
2022/09/02 01:34:58;;;;;;;1.65;0.82;;;16.70;93.70;;;;;;5054852;28;20048;-76
2022/09/02 01:37:24;;;;;;;5.10;0.73;;;16.70;93.70;;;;;;5054436;28;20017;-76
2022/09/02 01:39:51;;;;;;;2.03;1.15;;;16.70;93.80;;;;;;5061413;28;20021;-76
2022/09/02 01:42:17;;;;;;;0.77;0.77;;;16.70;93.80;;;;;;5061036;28;20048;-75
2022/09/02 01:44:44;;;;;;;2.97;0.90;;;16.70;93.90;;;;;;5060640;28;20025;-76
2022/09/02 01:47:15;;;;;;;2.42;1.08;;;16.60;94.10;;;;;;5061776;28;20055;-75
2022/09/02 01:49:41;;;;;;;1.95;0.80;;;16.60;94.20;;;;;;5058008;28;20017;-76
2022/09/02 01:52:07;;;;;;;1.50;1.00;;;16.60;94.10;;;;;;5060485;28;20025;-75
2022/09/02 01:54:34;;;;;;;1.90;1.02;;;16.60;94.00;;;;;;5057114;28;20036;-76
2022/09/02 01:57:00;;;;;;;0.80;0.80;;;16.60;94.30;;;;;;5054666;28;20104;-76
2022/09/02 01:59:26;;;;;;;1.88;1.10;;;16.50;94.30;;;;;;5055459;28;20484;-76
2022/09/02 02:01:51;;;;;;;1.13;0.80;;;16.50;94.30;;;;;;5054182;28;20484;-76
2022/09/02 02:04:17;;;;;;;2.20;0.70;;;16.50;94.60;;;;;;5053471;28;20539;-76
2022/09/02 02:06:44;;;;;;;1.08;0.93;;;16.50;94.70;;;;;;5054155;28;20036;-74
2022/09/02 02:09:10;;;;;;;0.80;0.80;;;16.40;94.70;;;;;;5053812;28;20487;-75
2022/09/02 02:11:37;;;;;;;1.27;0.70;;;16.40;94.80;;;;;;5053105;28;20033;-75
2022/09/02 02:14:03;;;;;;;1.05;0.80;;;16.40;94.70;;;;;;5053843;28;20032;-75
2022/09/02 02:16:28;;;;;;;0.70;0.70;;;16.40;94.80;;;;;;5053707;28;20036;-74
2022/09/02 02:18:54;;;;;;;3.58;1.23;;;16.40;94.80;;;;;;5053221;28;20047;-75
2022/09/02 02:21:20;;;;;;;3.20;1.08;;;16.30;95.00;;;;;;5053534;28;20059;-75
2022/09/02 02:23:46;;;;;;;2.55;0.82;;;16.30;94.90;;;;;;5052974;28;20033;-74
2022/09/02 02:26:11;;;;;;;1.48;0.98;;;16.30;95.00;;;;;;5052984;28;20021;-76
2022/09/02 02:28:37;;;;;;;2.00;0.93;;;16.30;94.90;;;;;;5053620;28;20033;-76
2022/09/02 02:31:05;;;;;;;1.58;0.85;;;16.20;95.00;;;;;;5053625;28;20366;-76
2022/09/02 02:33:31;;;;;;;2.25;0.80;;;16.20;95.00;;;;;;5053180;28;20090;-76
2022/09/02 02:35:57;;;;;;;6.05;0.93;;;16.20;95.30;;;;;;5053419;28;20485;-74
2022/09/02 02:38:23;;;;;;;2.58;1.10;;;16.20;95.20;;;;;;5053327;28;20028;-75
2022/09/02 02:40:49;;;;;;;1.02;0.90;;;16.10;95.30;;;;;;5052947;28;20043;-75
2022/09/02 02:43:16;;;;;;;2.30;0.88;;;16.20;95.40;;;;;;5053390;28;20025;-76
2022/09/02 02:45:41;;;;;;;1.92;1.02;;;16.10;95.40;;;;;;5052864;28;20420;-76
2022/09/02 02:48:07;;;;;;;1.92;0.93;;;16.10;95.20;;;;;;5053741;28;20100;-76
2022/09/02 02:50:32;;;;;;;3.65;0.90;;;16.10;95.40;;;;;;5053938;28;20021;-76
2022/09/02 02:53:07;;;;;;;1.83;0.80;;;16.00;95.50;;;;;;5052984;28;20496;-76
2022/09/02 02:55:33;;;;;;;0.80;0.80;;;16.00;95.50;;;;;;5052213;28;20104;-76
2022/09/02 02:58:02;;;;;;;2.53;0.80;;;16.00;95.40;;;;;;5053301;28;20025;-75
2022/09/02 03:00:31;;;;;;;1.20;0.82;;;16.00;95.50;;;;;;5052801;28;20040;-75
2022/09/02 03:03:00;;;;;;;1.08;0.90;;;16.00;95.40;;;;;;5053516;28;20036;-74
2022/09/02 03:05:26;;;;;;;2.70;1.00;;;16.10;95.50;;;;;;5053456;28;20024;-75
2022/09/02 03:07:52;;;;;;;1.83;1.02;;;16.10;95.50;;;;;;5052826;28;20024;-77
2022/09/02 03:10:18;;;;;;;2.30;0.93;;;16.10;95.40;;;;;;5053346;28;20025;-76
2022/09/02 03:12:46;;;;;;;0.80;0.80;;;16.10;95.40;;;;;;5053353;28;20025;-76
2022/09/02 03:15:15;;;;;;;1.92;0.70;;;16.10;95.40;;;;;;5052596;28;20037;-76
2022/09/02 03:17:42;;;;;;;1.20;0.98;;;16.10;95.40;;;;;;5053081;28;20476;-76
2022/09/02 03:20:08;;;;;;;1.42;0.90;;;16.10;95.30;;;;;;5052981;28;20080;-76
2022/09/02 03:22:37;;;;;;;0.70;0.70;;;16.00;95.40;;;;;;5052600;28;20078;-76
2022/09/02 03:25:07;;;;;;;3.83;0.90;;;16.10;95.30;;;;;;5053084;28;20024;-76
2022/09/02 03:27:33;;;;;;;2.25;0.80;;;16.10;95.20;;;;;;5052966;28;20091;-76
2022/09/02 03:30:01;;;;;;;6.47;1.25;;;16.10;95.60;;;;;;5052545;28;20334;-75
2022/09/02 03:32:27;;;;;;;1.63;0.73;;;16.00;95.50;;;;;;5053076;28;20028;-76
2022/09/02 03:34:53;;;;;;;5.35;0.80;;;16.10;95.40;;;;;;5053727;28;20423;-75
2022/09/02 03:37:19;;;;;;;1.70;0.90;;;16.00;95.40;;;;;;5057256;28;20032;-75
2022/09/02 03:39:45;;;;;;;0.80;0.80;;;16.00;95.40;;;;;;5056439;28;20033;-76
2022/09/02 03:42:11;;;;;;;1.40;0.82;;;16.00;95.40;;;;;;5056361;28;20037;-76
2022/09/02 03:44:39;;;;;;;2.35;0.80;;;16.00;95.30;;;;;;5056966;28;20325;-76
2022/09/02 03:47:05;;;;;;;0.82;0.82;;;16.00;95.40;;;;;;5056802;28;20033;-76
2022/09/02 03:49:30;;;;;;;1.30;0.90;;;15.90;95.30;;;;;;5057264;28;20104;-76
2022/09/02 03:51:56;;;;;;;1.10;1.00;;;16.00;95.30;;;;;;5057882;28;20043;-76
2022/09/02 03:54:21;;;;;;;2.05;1.20;;;15.90;95.40;;;;;;5056654;28;20477;-77
2022/09/02 03:56:47;;;;;;;1.50;1.15;;;15.90;95.40;;;;;;5056239;28;20021;-75
2022/09/02 03:59:13;;;;;;;1.38;0.95;;;15.90;95.60;;;;;;5060526;28;20033;-76
2022/09/02 04:01:38;;;;;;;1.92;1.02;;;15.90;95.60;;;;;;5060666;28;20415;-75
2022/09/02 04:04:05;;;;;;;1.58;0.90;;;15.80;95.50;;;;;;5057979;28;20021;-75
2022/09/02 04:06:31;;;;;;;1.27;1.10;;;15.90;95.40;;;;;;5061190;28;20079;-76
2022/09/02 04:08:56;;;;;;;1.02;0.80;;;15.90;95.60;;;;;;5056145;28;20377;-76
2022/09/02 04:11:22;;;;;;;2.75;1.23;;;15.80;95.50;;;;;;5055565;28;20033;-75
2022/09/02 04:13:50;;;;;;;1.02;0.90;;;15.80;95.60;;;;;;5056305;28;20028;-75
2022/09/02 04:16:19;;;;;;;2.75;0.80;;;15.80;95.60;;;;;;5056085;28;20028;-76
2022/09/02 04:18:45;;;;;;;1.55;0.93;;;15.70;95.60;;;;;;5055414;28;20032;-76
2022/09/02 04:21:11;;;;;;;3.28;1.00;;;15.70;95.90;;;;;;5063289;28;20056;-76
2022/09/02 04:23:37;;;;;;;2.05;0.90;;;15.50;95.80;;;;;;5055812;28;20389;-75
2022/09/02 04:26:09;;;;;;;1.52;0.90;;;15.70;96.00;;;;;;5055090;28;20025;-74
2022/09/02 04:28:35;;;;;;;4.00;1.35;;;15.60;96.10;;;;;;5055923;28;20025;-75
2022/09/02 04:31:10;;;;;;;1.45;1.00;;;15.60;96.00;;;;;;5055375;28;20021;-75
2022/09/02 04:33:36;;;;;;;4.28;1.05;;;15.50;96.00;;;;;;5056046;28;20029;-77
2022/09/02 04:36:07;;;;;;;2.63;1.00;;;15.60;96.30;;;;;;5055596;28;20106;-76
2022/09/02 04:38:32;;;;;;;;;;;15.60;96.10;;;;;;5054166;28;20119;-75
2022/09/02 04:40:58;;;;;;;1.45;1.13;;;15.50;95.90;;;;;;5055276;28;20001;-75
2022/09/02 04:43:24;;;;;;;3.47;1.20;;;15.50;96.50;;;;;;5055390;28;20028;-74
2022/09/02 04:45:50;;;;;;;1.50;0.90;;;15.50;96.00;;;;;;5053856;28;20472;-76
2022/09/02 04:48:17;;;;;;;3.65;1.20;;;15.60;96.10;;;;;;5055238;28;20104;-76
2022/09/02 04:50:44;;;;;;;3.72;0.80;;;15.50;96.10;;;;;;5055107;28;20548;-76
2022/09/02 04:53:10;;;;;;;4.28;1.20;;;15.50;96.20;;;;;;5054552;28;20087;-76
2022/09/02 04:55:41;;;;;;;2.17;1.05;;;15.50;96.20;;;;;;5055285;28;20542;-76
2022/09/02 04:58:07;;;;;;;3.25;1.17;;;15.50;96.20;;;;;;5055591;28;20256;-76
2022/09/02 05:00:33;;;;;;;5.25;1.33;;;15.40;96.20;;;;;;5054383;28;20036;-75
2022/09/02 05:02:59;;;;;;;2.65;1.20;;;15.40;96.40;;;;;;5055389;28;20024;-75
2022/09/02 05:05:24;;;;;;;2.47;0.85;;;15.40;96.30;;;;;;5055393;28;20029;-75
2022/09/02 05:07:55;;;;;;;2.53;1.00;;;15.50;96.30;;;;;;5054507;28;20029;-76
2022/09/02 05:10:20;;;;;;;1.15;1.00;;;15.50;96.10;;;;;;5055016;28;20017;-76
2022/09/02 05:12:46;;;;;;;1.90;0.90;;;15.50;96.20;;;;;;5055183;28;20419;-75
2022/09/02 05:15:12;;;;;;;2.53;0.98;;;15.50;96.00;;;;;;5054296;28;20063;-76
2022/09/02 05:17:38;;;;;;;1.92;1.10;;;15.60;96.20;;;;;;5054758;28;20200;-77
2022/09/02 05:20:08;;;;;;;0.80;0.80;;;15.60;96.00;;;;;;5054721;28;20084;-76
2022/09/02 05:22:35;;;;;;;2.08;1.23;;;15.70;96.20;;;;;;5053950;28;20496;-76
2022/09/02 05:25:01;;;;;;;4.18;1.30;;;15.70;96.10;;;;;;5054650;28;20536;-76
2022/09/02 05:27:26;;;;;;;3.70;1.27;;;15.70;95.90;;;;;;5053959;28;20031;-76
2022/09/02 05:29:58;;;;;;;7.28;1.25;;;15.80;95.70;;;;;;5054487;28;20016;-75
2022/09/02 05:32:24;;;;;;;2.85;1.20;;;15.90;95.90;;;;;;5054502;28;20082;-76
2022/09/02 05:34:50;;;;;;;5.00;1.55;;;15.90;95.90;;;;;;5054024;28;20024;-75
2022/09/02 05:37:16;;;;;;;2.30;0.98;;;15.90;95.60;;;;;;5054609;28;20100;-75
2022/09/02 05:39:41;;;;;;;4.40;1.10;;;15.90;95.90;;;;;;5054280;28;20465;-75
2022/09/02 05:42:07;;;;;;;2.67;1.20;;;15.90;95.80;;;;;;5053806;28;20036;-76
2022/09/02 05:44:34;;;;;;;2.85;1.13;;;15.90;95.80;;;;;;5054609;28;20021;-74
2022/09/02 05:47:00;;;;;;;1.42;1.20;;;16.00;95.90;;;;;;5054676;28;20365;-73
2022/09/02 05:49:26;;;;;;;1.45;1.10;;;16.00;95.70;;;;;;5054381;28;20029;-76
2022/09/02 05:51:55;;;;;;;2.50;1.20;;;16.10;95.90;;;;;;5055104;28;20036;-76
2022/09/02 05:54:39;;;;;;;6.00;1.25;;;16.10;95.80;;;;;;5056080;28;20029;-76
2022/09/02 05:57:08;;;;;;;3.83;1.40;;;16.10;95.90;;;;;;5056134;28;20495;-76
2022/09/02 05:59:35;;;;;;;2.17;1.40;;;16.10;95.80;;;;;;5057941;28;20040;-76
2022/09/02 06:02:01;;;;;;;5.03;1.20;;;16.10;95.90;;;;;;5059293;28;20037;-76
2022/09/02 06:04:27;;;;;;;1.52;1.25;;;16.10;95.90;;;;;;5055433;28;20024;-76
2022/09/02 06:06:53;;;;;;;3.65;1.45;;;16.20;96.00;;;;;;5056573;28;20040;-75
2022/09/02 06:09:22;;;;;;;1.05;1.05;;;16.20;96.00;;;;;;5056044;28;20373;-76
2022/09/02 06:11:48;;;;;;;3.88;1.27;;;16.20;96.10;;;;;;5054646;28;20075;-75
2022/09/02 06:14:17;;;;;;;1.98;1.20;;;16.20;96.00;;;;;;5057965;28;20113;-75
2022/09/02 06:16:44;;;;;;;4.55;1.40;;;16.30;96.00;;;;;;5053034;28;20103;-76
2022/09/02 06:19:09;;;;;;;3.28;1.10;;;16.30;95.90;;;;;;5053991;28;20044;-75
2022/09/02 06:21:37;;;;;;;1.77;1.33;;;16.30;96.00;;;;;;5053753;28;20053;-75
2022/09/02 06:24:07;;;;;;;2.28;1.25;;;16.40;96.00;;;;;;5053016;28;20052;-75
2022/09/02 06:26:34;;;;;;;2.97;1.30;;;16.40;95.90;;;;;;5053585;28;20079;-76
2022/09/02 06:29:00;;;;;;;1.58;1.48;;;16.50;95.90;;;;;;5053572;28;20021;-75
2022/09/02 06:31:26;;;;;;;4.32;1.50;;;16.60;95.70;;;;;;5053071;28;20033;-77
2022/09/02 06:33:54;;;;;;;6.22;1.60;;;16.60;95.80;;;;;;5053785;28;20021;-76
2022/09/02 06:36:23;;;;;;;1.95;1.38;;;16.60;95.90;;;;;;5053837;28;20029;-76
2022/09/02 06:38:50;;;;;;;2.90;2.10;;;16.70;95.70;;;;;;5052986;28;20021;-76
2022/09/02 06:41:22;;;;;;;4.30;1.45;;;16.60;95.70;;;;;;5053823;28;20043;-75
2022/09/02 06:43:48;;;;;;;2.50;1.20;;;16.70;95.90;;;;;;5053662;28;20108;-76
2022/09/02 06:46:17;;;;;;;2.88;1.65;;;16.70;95.90;;;;;;5052910;28;20021;-76
2022/09/02 06:48:43;;;;;;;5.72;1.77;;;16.80;95.80;;;;;;5053331;28;20025;-76
2022/09/02 06:51:16;;;;;;;1.83;1.30;;;16.80;95.70;;;;;;5053392;28;20037;-76
2022/09/02 06:53:42;;;;;;;4.63;1.90;;;16.80;95.70;;;;;;5052639;28;20435;-76
2022/09/02 06:56:07;;;;;;;4.78;1.80;;;16.90;95.70;;;;;;5053200;28;20025;-75
2022/09/02 06:58:33;;;;;;;2.38;1.85;;;16.80;95.80;;;;;;5053348;28;20036;-76
2022/09/02 07:00:58;;;;;;;3.28;1.73;;;16.90;95.90;;;;;;5052468;28;20033;-76
2022/09/02 07:06:10;;;;;;;2.70;1.52;;;17.00;96.00;;;;;;5052595;28;20095;-76
2022/09/02 07:08:41;;;;;;;2.92;1.70;;;17.10;95.80;;;;;;5053401;28;20033;-75
2022/09/02 07:11:18;;;;;;;7.03;1.58;;;17.10;95.90;;;;;;5056902;28;20378;-76
2022/09/02 07:13:44;;;;;;;1.85;1.58;;;17.20;96.00;;;;;;5056737;28;20021;-76
2022/09/02 07:16:10;;;;;;;3.45;1.70;;;17.30;96.00;;;;;;5057388;28;20534;-74
2022/09/02 07:18:36;;;;;;;5.78;1.90;;;17.50;96.30;;;;;;5057049;28;20021;-76
2022/09/02 07:21:02;;;;;;;2.25;1.65;;;17.50;95.90;;;;;;5056177;28;20045;-74
2022/09/02 07:23:27;;;;;;;9.02;2.42;;;17.60;95.80;;;;;;5057227;28;20025;-76
2022/09/02 07:25:54;;;;;;;3.33;1.73;;;17.70;95.60;;;;;;5057215;28;20481;-74
2022/09/02 07:28:21;;;;;;;2.92;1.90;;;17.70;95.70;;;;;;5057666;28;20092;-76
2022/09/02 07:30:47;;;;;;;4.07;1.75;;;17.80;95.50;;;;;;5057612;28;20029;-75
2022/09/02 07:33:14;;;;;;;3.40;1.88;;;17.80;95.60;;;;;;5057278;28;20048;-76
2022/09/02 07:35:41;;;;;;;10.88;2.40;;;17.80;95.60;;;;;;5057132;28;20025;-77
2022/09/02 07:38:07;;;;;;;2.80;1.83;;;17.90;95.80;;;;;;5058048;28;20029;-75
2022/09/02 07:40:35;;;;;;;3.33;1.48;;;17.90;95.70;;;;;;5057667;28;20036;-76
2022/09/02 07:43:05;;;;;;;4.45;1.92;;;18.00;95.80;;;;;;5056677;28;20526;-76
2022/09/02 07:45:31;;;;;;;6.22;2.00;;;18.00;95.70;;;;;;5057689;28;20027;-76
2022/09/02 07:47:57;;;;;;;2.63;1.58;;;18.10;95.80;;;;;;5057065;28;20029;-76
2022/09/02 07:50:25;;;;;;;5.15;1.60;;;18.20;95.70;;;;;;5057125;28;20027;-75
2022/09/02 07:52:53;;;;;;;2.80;1.90;;;18.30;95.80;;;;;;5057376;28;20040;-75
2022/09/02 07:55:20;;;;;;;2.58;2.20;;;18.30;95.70;;;;;;5056879;28;20036;-75
2022/09/02 07:57:46;;;;;;;3.78;1.88;;;18.50;95.70;;;;;;5057206;28;20101;-75
2022/09/02 08:00:13;;;;;;;1.90;1.77;;;18.60;95.60;;;;;;5057411;28;20044;-74
2022/09/02 08:02:39;;;;;;;3.55;2.17;;;18.70;95.60;;;;;;5056660;28;20082;-74
2022/09/02 08:05:05;;;;;;;3.83;1.98;;;18.70;95.60;;;;;;5060528;28;20100;-76
2022/09/02 08:07:31;;;;;;;3.53;2.60;;;18.80;95.40;;;;;;5058815;28;20025;-75
2022/09/02 08:09:59;;;;;;;2.17;1.90;;;18.90;95.60;;;;;;5056465;28;20025;-75
2022/09/02 08:12:26;;;;;;;2.25;1.90;;;19.00;95.50;;;;;;5057185;28;20025;-74
2022/09/02 08:14:52;;;;;;;2.97;1.60;;;19.10;95.60;;;;;;5058995;28;20044;-76
2022/09/02 08:17:20;;;;;;;3.38;1.83;;;19.20;95.40;;;;;;5058832;28;20188;-76
2022/09/02 08:19:46;;;;;;;4.47;2.28;;;19.30;95.10;;;;;;5061597;28;20036;-77
2022/09/02 08:22:13;;;;;;;12.70;3.03;;;19.40;94.70;;;;;;5061765;28;20496;-76
2022/09/02 08:24:39;;;;;;;4.47;1.90;;;19.50;94.50;;;;;;5056092;28;20477;-76
2022/09/02 08:27:05;;;;;;;2.30;2.10;;;19.60;94.40;;;;;;5056694;28;20025;-76
2022/09/02 08:29:30;;;;;;;4.00;2.00;;;19.80;94.10;;;;;;5057162;28;20507;-75
2022/09/02 08:31:56;;;;;;;3.72;1.92;;;19.90;94.10;;;;;;5056264;28;20025;-77
2022/09/02 08:34:21;;;;;;;7.28;2.42;;;20.00;93.90;;;;;;5056597;28;20338;-75
2022/09/02 08:36:47;;;;;;;4.13;2.63;;;20.00;93.50;;;;;;5056787;28;20021;-76
2022/09/02 08:39:13;;;;;;;5.85;2.15;;;20.10;93.70;;;;;;5057432;28;20025;-75
2022/09/02 08:41:57;;;;;;;2.55;2.35;;;20.10;93.80;;;;;;5055511;28;20437;-75
2022/09/02 08:44:23;;;;;;;4.53;2.38;;;20.20;93.80;;;;;;5054967;28;20488;-75
2022/09/02 08:46:56;;;;;;;2.67;2.13;;;20.30;93.40;;;;;;5055632;28;20483;-76
2022/09/02 08:49:32;;;;;;;6.32;2.67;;;20.40;93.40;;;;;;5055844;28;20094;-77
2022/09/02 08:52:00;;;;;;;6.75;2.28;;;20.50;93.40;;;;;;5056040;28;20025;-77
2022/09/02 08:54:50;;;;;;;7.43;2.20;;;20.60;93.40;;;;;;5060934;28;20032;-77
2022/09/02 08:57:16;;;;;;;2.20;2.03;;;20.80;93.40;;;;;;5063673;28;20469;-76
2022/09/02 08:59:44;;;;;;;4.93;2.22;;;20.90;93.30;;;;;;5063411;28;20032;-75
2022/09/02 09:02:31;;;;;;;5.57;2.85;;;21.00;93.20;;;;;;5064665;28;20040;-75
2022/09/02 09:05:21;;;;;;;8.00;2.90;;;21.10;92.90;;;;;;5064406;28;20035;-76
2022/09/02 09:07:53;;;;;;;5.82;2.45;;;21.10;92.80;;;;;;5065377;28;20040;-76
2022/09/02 09:10:29;;;;;;;2.90;2.38;;;21.20;92.90;;;;;;5064952;28;20032;-78
2022/09/02 09:13:15;;;;;;;5.05;2.42;;;21.20;92.90;;;;;;5064292;28;20021;-77
2022/09/02 09:15:46;;;;;;;8.13;3.10;;;21.30;92.80;;;;;;5063969;28;20108;-77
2022/09/02 09:18:17;;;;;;;3.83;2.30;;;21.40;92.70;;;;;;5062744;28;20016;-75
2022/09/02 09:20:44;;;;;;;3.22;2.42;;;21.50;92.80;;;;;;5061874;28;20073;-76
2022/09/02 09:23:26;;;;;;;6.05;2.42;;;21.50;92.60;;;;;;5061152;28;20515;-76
2022/09/02 09:26:04;;;;;;;12.38;3.47;;;21.50;92.60;;;;;;5055162;28;20025;-76
2022/09/02 09:28:30;;;;;;;4.85;2.67;;;21.60;92.60;;;;;;5054515;28;20393;-76
2022/09/02 09:30:59;;;;;;;6.05;2.80;;;21.70;92.40;;;;;;5054882;28;20036;-76
2022/09/02 09:33:24;;;;;;;8.48;2.53;;;21.80;92.40;;;;;;5053868;28;20025;-76
2022/09/02 09:35:55;;;;;;;4.20;2.50;;;21.70;92.10;;;;;;5056429;28;20468;-75
2022/09/02 09:38:29;;;;;;;7.45;2.30;;;21.80;92.30;;;;;;5055189;28;20162;-76
2022/09/02 09:41:16;;;;;;;7.50;2.72;;;22.00;92.30;;;;;;5054054;28;20061;-76
2022/09/02 09:43:44;;;;;;;4.40;2.60;;;22.00;91.90;;;;;;5054676;28;20026;-74
2022/09/02 09:46:29;;;;;;;3.47;2.60;;;22.10;92.30;;;;;;5054539;28;20091;-76
2022/09/02 09:48:54;;;;;;;4.05;2.15;;;22.20;92.10;;;;;;5054368;28;20029;-77
2022/09/02 09:51:20;;;;;;;5.43;2.17;;;22.30;92.10;;;;;;5054702;28;20024;-76
2022/09/02 09:53:46;;;;;;;4.35;2.83;;;22.30;91.90;;;;;;5054391;28;20106;-77
2022/09/02 09:56:15;;;;;;;3.85;2.22;;;22.30;91.90;;;;;;5053592;28;20025;-76
2022/09/02 09:58:40;;;;;;;3.03;2.70;;;22.30;91.60;;;;;;5054356;28;20056;-76
2022/09/02 10:01:27;;;;;;;3.47;2.40;;;22.30;91.70;;;;;;5053710;28;20066;-75
2022/09/02 10:03:59;;;;;;;3.72;2.58;;;22.30;91.70;;;;;;5053999;28;20088;-74
2022/09/02 10:06:31;;;;;;;2.67;2.28;;;22.30;91.80;;;;;;5054085;28;20033;-75
2022/09/02 10:08:59;;;;;;;4.68;2.60;;;22.40;92.00;;;;;;5053753;28;20094;-75
2022/09/02 10:11:30;;;;;;;8.55;2.85;;;22.40;92.00;;;;;;5054811;28;20025;-77
2022/09/02 10:14:04;;;;;;;7.03;2.78;;;22.50;91.80;;;;;;5056061;28;20112;-75
2022/09/02 10:16:38;;;;;;;8.52;3.15;;;22.60;91.50;;;;;;5054137;28;20031;-76
2022/09/02 10:19:28;;;;;;;7.00;2.85;;;22.70;91.70;;;;;;5052732;28;20469;-75
2022/09/02 10:22:03;;;;;;;;;;;22.70;91.40;;;;;;5054782;28;20049;-76
2022/09/02 10:24:47;;;;;;;3.03;2.80;;;22.80;91.30;;;;;;5057949;28;19937;-76
2022/09/02 10:27:22;;;;;;;3.75;2.42;;;22.80;91.20;;;;;;5055725;28;20480;-76
2022/09/02 10:30:17;;;;;;;8.27;2.83;;;22.90;91.30;;;;;;5057617;28;20031;-76
2022/09/02 10:33:10;;;;;;;5.25;2.80;;;22.80;91.10;;;;;;5055064;28;20032;-77
2022/09/02 10:35:49;;;;;;;3.63;2.50;;;22.80;91.20;;;;;;5056047;28;20095;-77
2022/09/02 10:38:43;;;;;;;3.77;2.97;;;22.80;91.60;;;;;;5056602;28;20021;-77
2022/09/02 10:41:30;;;;;;;3.45;2.42;;;22.80;91.70;;;;;;5057624;28;20307;-77
2022/09/02 10:44:21;;;;;;;4.95;2.67;;;22.90;91.60;;;;;;5052863;28;20021;-76
2022/09/02 10:46:54;;;;;;;4.68;2.60;;;23.00;91.10;;;;;;5053535;28;20108;-76
2022/09/02 10:49:58;;;;;;;12.23;3.40;;;23.10;91.20;;;;;;5053386;28;20096;-76
2022/09/02 10:53:04;;;;;;;5.13;3.30;;;23.10;91.00;;;;;;5030581;28;20053;-77
2022/09/02 10:55:59;;;;;;;6.75;2.75;;;23.10;90.80;;;;;;5040724;28;20119;-77
2022/09/02 10:58:54;;;;;;;7.88;3.00;;;23.20;90.90;;;;;;5052670;28;20021;-76
2022/09/02 11:01:32;;;;;;;5.15;2.88;;;23.30;90.70;;;;;;5053195;28;20033;-75
2022/09/02 11:04:21;;;;;;;5.32;3.08;;;23.30;90.70;;;;;;5053547;28;20017;-76
2022/09/02 11:06:50;;;;;;;7.10;2.20;;;23.30;90.70;;;;;;5052676;28;20036;-77
2022/09/02 11:09:40;;;;;;;7.10;3.00;;;23.40;90.80;;;;;;5053228;28;20070;-76
2022/09/02 11:12:28;;;;;;;5.15;3.40;;;23.50;90.60;;;;;;5052474;28;20091;-77
2022/09/02 11:15:03;;;;;;;4.20;3.22;;;23.50;90.70;;;;;;5053112;28;20036;-76
2022/09/02 11:17:37;;;;;;;7.03;3.30;;;23.60;90.70;;;;;;5052941;28;20063;-77
2022/09/02 11:20:22;;;;;;;5.63;2.67;;;23.60;90.30;;;;;;5052115;28;20096;-76
2022/09/02 11:23:19;;;;;;;7.50;3.33;;;23.60;90.60;;;;;;5052875;28;20503;-77
2022/09/02 11:25:56;;;;;;;9.32;2.50;;;23.70;90.50;;;;;;5053268;28;20025;-77
2022/09/02 11:28:42;;;;;;;2.85;2.47;;;23.80;90.40;;;;;;5053154;28;20028;-77
2022/09/02 11:31:45;;;;;;;5.20;2.55;;;23.90;90.00;;;;;;5052992;28;20139;-75
2022/09/02 11:34:15;;;;;;;6.53;2.45;;;23.90;89.50;;;;;;5052332;28;20074;-75
2022/09/02 11:36:41;;;;;;;3.30;2.58;;;23.90;89.30;;;;;;5054409;28;20089;-75
2022/09/02 11:39:10;;;;;;;8.88;2.60;;;23.90;89.30;;;;;;5053270;28;20500;-76
2022/09/02 11:41:40;;;;;;;5.72;2.50;;;24.10;89.40;;;;;;5053245;28;20048;-76
2022/09/02 11:44:21;;;;;;;4.00;2.33;;;24.20;89.40;;;;;;5053598;28;20021;-76
2022/09/02 11:47:29;;;;;;;5.30;3.05;;;24.30;87.80;;;;;;5053210;28;20492;-76
2022/09/02 11:50:31;;;;;;;2.08;1.88;;;24.40;87.10;;;;;;5052660;28;20393;-75
2022/09/02 11:53:12;;;;;;;9.90;2.75;;;24.40;86.00;;;;;;5053887;28;20033;-76
2022/09/02 11:55:46;;;;;;;5.22;1.90;;;24.50;85.90;;;;;;5053487;28;20071;-76
2022/09/02 11:58:29;;;;;;;13.43;3.45;;;24.50;86.00;;;;;;5057059;28;20473;-76
2022/09/02 12:01:21;;;;;;;3.05;2.10;;;24.60;86.60;;;;;;5057172;28;20036;-76
2022/09/02 12:04:18;;;;;;;4.63;2.35;;;24.70;85.90;;;;;;5057209;28;20029;-76
2022/09/02 12:07:08;;;;;;;5.18;2.42;;;24.80;84.90;;;;;;5056523;28;20033;-77
2022/09/02 12:09:45;;;;;;;4.10;2.33;;;24.90;84.70;;;;;;5056006;28;20374;-77
2022/09/02 12:12:37;;;;;;;5.75;2.67;;;24.90;83.80;;;;;;5056939;28;20480;-76
2022/09/02 12:15:07;;;;;;;3.97;2.22;;;25.00;82.70;;;;;;5048754;28;20035;-77
2022/09/02 12:18:04;;;;;;;12.88;2.72;;;25.00;82.40;;;;;;5055552;28;20377;-76
2022/09/02 12:20:40;;;;;;;8.50;2.42;;;25.10;81.90;;;;;;5057678;28;20505;-76
2022/09/02 12:23:29;;;;;;;5.63;2.70;;;25.20;82.40;;;;;;5057260;28;20489;-76
2022/09/02 12:26:05;;;;;;;8.57;1.98;;;25.30;82.80;;;;;;5056241;28;20115;-76
2022/09/02 12:28:32;;;;;;;9.25;2.42;;;25.50;80.50;;;;;;5056204;28;20033;-76
2022/09/02 12:31:01;;;;;;;8.30;2.53;;;25.60;80.60;;;;;;5057282;28;20025;-77
2022/09/02 12:33:31;;;;;;;5.55;2.15;;;25.70;80.20;;;;;;5056848;28;20025;-76
2022/09/02 12:35:58;;;;;;;7.37;2.33;;;25.90;79.70;;;;;;5058458;28;20020;-77
2022/09/02 12:38:26;;;;;;;3.63;2.10;;;25.90;78.00;;;;;;5056051;28;20283;-75
2022/09/02 12:41:04;;;;;;;7.13;2.83;;;25.90;77.80;;;;;;5055751;28;20082;-76
2022/09/02 12:43:55;;;;;;;3.47;2.00;;;26.00;78.40;;;;;;5054788;28;20488;-77
2022/09/02 12:46:45;;;;;;;6.07;1.90;;;26.10;79.10;;;;;;5055358;28;20017;-76
2022/09/02 12:49:36;;;;;;;9.23;2.47;;;26.20;79.40;;;;;;5055500;28;20142;-76
2022/09/02 12:52:02;;;;;;;14.40;2.90;;;26.30;78.10;;;;;;5054740;28;20033;-77
2022/09/02 12:54:47;;;;;;;7.53;2.30;;;26.40;78.10;;;;;;5055558;28;20070;-76
2022/09/02 12:57:17;;;;;;;2.13;1.92;;;26.50;78.40;;;;;;5055149;28;20032;-76
2022/09/02 12:59:45;;;;;;;4.15;2.45;;;26.60;77.50;;;;;;5054630;28;20472;-76
2022/09/02 13:02:29;;;;;;;7.90;2.30;;;26.60;76.90;;;;;;5055355;28;20443;-77
2022/09/02 13:05:27;;;;;;;6.50;2.15;;;26.70;76.60;;;;;;5054840;28;20018;-77
2022/09/02 13:08:29;;;;;;;5.95;2.42;;;26.90;78.00;;;;;;5046044;28;20037;-76
2022/09/02 13:11:06;;;;;;;3.53;2.20;;;26.90;76.40;;;;;;5056192;28;20053;-77